createdAt,value
2018-10-06T00:00:38.277Z,20.85
2018-10-06T00:01:38.231Z,20.82
2018-10-06T00:02:38.183Z,20.82
2018-10-06T00:03:38.138Z,20.85
2018-10-06T00:04:38.092Z,20.89
2018-10-06T00:05:38.048Z,20.87
2018-10-06T00:06:37.999Z,20.85
2018-10-06T00:07:37.953Z,20.88
2018-10-06T00:08:37.907Z,20.87
2018-10-06T00:09:37.861Z,20.82
2018-10-06T00:10:37.823Z,20.85
2018-10-06T00:11:37.769Z,20.85
2018-10-06T00:12:37.723Z,20.89
2018-10-06T00:13:37.677Z,20.82
2018-10-06T00:14:37.630Z,20.87
2018-10-06T00:15:37.584Z,20.84
2018-10-06T00:16:37.538Z,20.88
2018-10-06T00:17:37.492Z,20.84
2018-10-06T00:18:37.445Z,20.87
2018-10-06T00:19:37.400Z,20.79
2018-10-06T00:20:37.353Z,20.84
2018-10-06T00:21:37.308Z,20.89
2018-10-06T00:22:37.260Z,20.87
2018-10-06T00:23:37.215Z,20.82
2018-10-06T00:24:37.171Z,20.80
2018-10-06T00:25:37.123Z,20.87
2018-10-06T00:26:37.076Z,20.82
2018-10-06T00:27:37.030Z,20.84
2018-10-06T00:28:36.984Z,20.82
2018-10-06T00:29:36.938Z,20.80
2018-10-06T00:30:36.891Z,20.87
2018-10-06T00:31:36.845Z,20.85
2018-10-06T00:32:36.800Z,20.85
2018-10-06T00:33:36.753Z,20.84
2018-10-06T00:34:36.706Z,20.80
2018-10-06T00:35:36.660Z,20.87
2018-10-06T00:36:36.614Z,20.84
2018-10-06T00:37:36.569Z,20.82
2018-10-06T00:38:36.523Z,20.89
2018-10-06T00:39:36.477Z,20.89
2018-10-06T00:40:36.429Z,20.84
2018-10-06T00:41:36.384Z,20.79
2018-10-06T00:42:36.338Z,20.87
2018-10-06T00:43:36.290Z,20.87
2018-10-06T00:44:36.244Z,20.87
2018-10-06T00:45:36.199Z,20.80
2018-10-06T00:46:36.152Z,20.84
2018-10-06T00:47:36.116Z,20.82
2018-10-06T00:48:36.064Z,20.85
2018-10-06T00:49:36.015Z,20.84
2018-10-06T00:50:35.968Z,20.82
2018-10-06T00:51:35.925Z,20.91
2018-10-06T00:52:35.875Z,20.85
2018-10-06T00:53:35.831Z,20.84
2018-10-06T00:54:35.787Z,20.85
2018-10-06T00:55:35.744Z,20.82
2018-10-06T00:56:35.690Z,20.84
2018-10-06T00:57:35.644Z,20.82
2018-10-06T00:58:35.605Z,20.84
2018-10-06T00:59:35.551Z,20.84
2018-10-06T01:00:35.505Z,20.80
2018-10-06T01:01:35.466Z,20.85
2018-10-06T01:02:35.412Z,20.87
2018-10-06T01:03:35.367Z,20.80
2018-10-06T01:04:35.323Z,20.85
2018-10-06T01:05:35.274Z,20.85
2018-10-06T01:06:35.228Z,20.80
2018-10-06T01:07:35.181Z,20.82
2018-10-06T01:08:35.139Z,20.85
2018-10-06T01:09:35.089Z,20.82
2018-10-06T01:10:35.058Z,20.84
2018-10-06T01:11:34.997Z,20.82
2018-10-06T01:12:34.951Z,20.84
2018-10-06T01:13:34.905Z,20.85
2018-10-06T01:14:34.857Z,20.85
2018-10-06T01:15:34.812Z,20.82
2018-10-06T01:16:34.766Z,20.84
2018-10-06T01:17:34.720Z,20.84
2018-10-06T01:18:34.673Z,20.82
2018-10-06T01:19:34.627Z,20.88
2018-10-06T01:20:34.584Z,20.85
2018-10-06T01:21:34.535Z,20.87
2018-10-06T01:22:34.488Z,20.79
2018-10-06T01:23:34.445Z,20.84
2018-10-06T01:24:34.396Z,20.82
2018-10-06T01:25:34.350Z,20.82
2018-10-06T01:26:34.303Z,20.77
2018-10-06T01:27:34.257Z,20.85
2018-10-06T01:28:34.212Z,20.76
2018-10-06T01:29:34.166Z,20.76
2018-10-06T01:30:34.118Z,20.74
2018-10-06T01:31:34.073Z,20.73
2018-10-06T01:32:34.027Z,20.73
2018-10-06T01:33:33.981Z,20.74
2018-10-06T01:34:33.933Z,20.79
2018-10-06T01:35:33.889Z,20.76
2018-10-06T01:36:33.843Z,20.77
2018-10-06T01:37:33.796Z,20.73
2018-10-06T01:38:33.749Z,20.79
2018-10-06T01:39:33.703Z,20.72
2018-10-06T01:40:33.657Z,20.82
2018-10-06T01:41:33.625Z,20.79
2018-10-06T01:42:33.564Z,20.72
2018-10-06T01:43:33.518Z,20.72
2018-10-06T01:44:33.472Z,20.73
2018-10-06T01:45:33.426Z,20.77
2018-10-06T01:46:33.380Z,20.69
2018-10-06T01:47:33.333Z,20.70
2018-10-06T01:48:33.287Z,20.77
2018-10-06T01:49:33.242Z,20.77
2018-10-06T01:50:33.194Z,20.76
2018-10-06T01:51:33.149Z,20.72
2018-10-06T01:52:33.104Z,20.73
2018-10-06T01:53:33.058Z,20.77
2018-10-06T01:54:33.009Z,20.76
2018-10-06T01:55:32.963Z,20.73
2018-10-06T01:56:32.917Z,20.72
2018-10-06T01:57:32.877Z,20.77
2018-10-06T01:58:32.824Z,20.72
2018-10-06T01:59:32.778Z,20.73
2018-10-06T02:00:32.732Z,20.73
2018-10-06T02:01:32.689Z,20.73
2018-10-06T02:02:32.639Z,20.73
2018-10-06T02:03:32.593Z,20.77
2018-10-06T02:04:32.547Z,20.74
2018-10-06T02:05:32.551Z,20.80
2018-10-06T02:06:32.454Z,20.77
2018-10-06T02:07:32.408Z,20.74
2018-10-06T02:08:32.678Z,20.74
2018-10-06T02:09:32.634Z,20.76
2018-10-06T02:10:32.586Z,20.77
2018-10-06T02:11:32.223Z,20.82
2018-10-06T02:12:32.181Z,20.84
2018-10-06T02:13:32.132Z,20.82
2018-10-06T02:14:32.085Z,20.66
2018-10-06T02:15:32.038Z,20.80
2018-10-06T02:16:31.992Z,20.79
2018-10-06T02:17:31.947Z,20.79
2018-10-06T02:18:31.900Z,20.77
2018-10-06T02:19:31.853Z,20.66
2018-10-06T02:20:31.808Z,20.76
2018-10-06T02:21:31.765Z,20.77
2018-10-06T02:22:31.714Z,20.66
2018-10-06T02:23:31.670Z,20.74
2018-10-06T02:24:31.624Z,20.67
2018-10-06T02:25:31.577Z,20.77
2018-10-06T02:26:31.529Z,20.77
2018-10-06T02:27:31.484Z,20.80
2018-10-06T02:28:31.437Z,20.66
2018-10-06T02:29:31.392Z,20.77
2018-10-06T02:30:31.345Z,20.64
2018-10-06T02:31:31.299Z,20.67
2018-10-06T02:32:31.253Z,20.64
2018-10-06T02:33:31.257Z,20.67
2018-10-06T02:34:31.161Z,20.77
2018-10-06T02:35:31.122Z,20.73
2018-10-06T02:36:31.069Z,20.64
2018-10-06T02:37:31.024Z,20.66
2018-10-06T02:38:30.978Z,20.72
2018-10-06T02:39:30.930Z,20.67
2018-10-06T02:40:30.883Z,20.76
2018-10-06T02:41:30.838Z,20.69
2018-10-06T02:42:30.792Z,20.64
2018-10-06T02:43:30.744Z,20.64
2018-10-06T02:44:30.698Z,20.62
2018-10-06T02:45:30.652Z,20.61
2018-10-06T02:46:30.613Z,20.70
2018-10-06T02:47:30.564Z,20.72
2018-10-06T02:48:30.513Z,20.67
2018-10-06T02:49:30.468Z,20.64
2018-10-06T02:50:30.421Z,20.62
2018-10-06T02:51:30.375Z,20.69
2018-10-06T02:52:30.329Z,20.69
2018-10-06T02:53:30.283Z,20.67
2018-10-06T02:54:30.240Z,20.67
2018-10-06T02:55:30.193Z,20.66
2018-10-06T02:56:30.143Z,20.70
2018-10-06T02:57:30.098Z,20.61
2018-10-06T02:58:30.050Z,20.69
2018-10-06T02:59:30.005Z,20.64
2018-10-06T03:00:29.958Z,20.70
2018-10-06T03:01:29.912Z,20.64
2018-10-06T03:02:29.866Z,20.67
2018-10-06T03:03:29.819Z,20.69
2018-10-06T03:04:29.823Z,20.61
2018-10-06T03:05:29.728Z,20.73
2018-10-06T03:06:29.681Z,20.69
2018-10-06T03:07:29.634Z,20.64
2018-10-06T03:08:29.592Z,20.70
2018-10-06T03:09:29.543Z,20.70
2018-10-06T03:10:29.497Z,20.67
2018-10-06T03:11:29.449Z,20.69
2018-10-06T03:12:29.403Z,20.62
2018-10-06T03:13:29.357Z,20.69
2018-10-06T03:14:29.312Z,20.69
2018-10-06T03:15:29.264Z,20.64
2018-10-06T03:16:29.218Z,20.69
2018-10-06T03:17:29.172Z,20.72
2018-10-06T03:18:29.129Z,20.74
2018-10-06T03:19:29.078Z,20.70
2018-10-06T03:20:29.036Z,20.69
2018-10-06T03:21:28.989Z,20.72
2018-10-06T03:22:28.943Z,20.61
2018-10-06T03:23:28.894Z,20.73
2018-10-06T03:24:28.847Z,20.69
2018-10-06T03:25:28.802Z,20.69
2018-10-06T03:26:28.755Z,20.69
2018-10-06T03:27:28.710Z,20.67
2018-10-06T03:28:28.663Z,20.72
2018-10-06T03:29:28.616Z,20.72
2018-10-06T03:30:28.570Z,20.70
2018-10-06T03:31:28.524Z,20.64
2018-10-06T03:32:28.478Z,20.74
2018-10-06T03:33:28.431Z,20.64
2018-10-06T03:34:28.384Z,20.67
2018-10-06T03:35:28.338Z,20.72
2018-10-06T03:36:28.292Z,20.66
2018-10-06T03:37:28.246Z,20.69
2018-10-06T03:38:28.199Z,20.70
2018-10-06T03:39:28.153Z,20.69
2018-10-06T03:40:28.107Z,20.69
2018-10-06T03:41:28.060Z,20.66
2018-10-06T03:42:28.014Z,20.70
2018-10-06T03:43:27.968Z,20.70
2018-10-06T03:44:27.921Z,20.70
2018-10-06T03:45:27.876Z,20.64
2018-10-06T03:46:27.829Z,20.66
2018-10-06T03:47:27.789Z,20.66
2018-10-06T03:48:27.740Z,20.67
2018-10-06T03:49:27.691Z,20.69
2018-10-06T03:50:27.643Z,20.62
2018-10-06T03:51:27.598Z,20.67
2018-10-06T03:52:27.551Z,20.66
2018-10-06T03:53:27.506Z,20.72
2018-10-06T03:54:27.459Z,20.69
2018-10-06T03:55:27.412Z,20.72
2018-10-06T03:56:27.366Z,20.66
2018-10-06T03:57:27.321Z,20.76
2018-10-06T03:58:27.273Z,20.64
2018-10-06T03:59:27.227Z,20.64
2018-10-06T04:00:27.181Z,20.69
2018-10-06T04:01:27.135Z,20.64
2018-10-06T04:02:27.088Z,20.66
2018-10-06T04:03:27.041Z,20.64
2018-10-06T04:04:26.995Z,20.66
2018-10-06T04:05:26.950Z,20.62
2018-10-06T04:06:26.902Z,20.62
2018-10-06T04:07:26.857Z,20.61
2018-10-06T04:08:26.810Z,20.62
2018-10-06T04:09:26.769Z,20.59
2018-10-06T04:10:26.717Z,20.62
2018-10-06T04:11:26.671Z,20.57
2018-10-06T04:12:26.625Z,20.58
2018-10-06T04:13:26.579Z,20.66
2018-10-06T04:14:26.534Z,20.55
2018-10-06T04:15:26.486Z,20.61
2018-10-06T04:16:26.439Z,20.59
2018-10-06T04:17:26.394Z,20.57
2018-10-06T04:18:26.346Z,20.58
2018-10-06T04:19:26.302Z,20.58
2018-10-06T04:20:26.255Z,20.66
2018-10-06T04:21:26.210Z,20.52
2018-10-06T04:22:26.162Z,20.55
2018-10-06T04:23:26.117Z,20.58
2018-10-06T04:24:26.069Z,20.58
2018-10-06T04:25:26.023Z,20.54
2018-10-06T04:26:25.976Z,20.58
2018-10-06T04:27:25.930Z,20.58
2018-10-06T04:28:26.031Z,20.52
2018-10-06T04:29:25.838Z,20.58
2018-10-06T04:30:25.791Z,20.58
2018-10-06T04:31:25.745Z,20.58
2018-10-06T04:32:25.700Z,20.54
2018-10-06T04:33:25.653Z,20.59
2018-10-06T04:34:25.608Z,20.58
2018-10-06T04:35:25.559Z,20.57
2018-10-06T04:36:25.513Z,20.59
2018-10-06T04:37:25.468Z,20.54
2018-10-06T04:38:25.421Z,20.54
2018-10-06T04:39:25.425Z,20.59
2018-10-06T04:40:25.328Z,20.69
2018-10-06T04:41:25.282Z,20.57
2018-10-06T04:42:25.235Z,20.54
2018-10-06T04:43:25.189Z,20.55
2018-10-06T04:44:25.150Z,20.55
2018-10-06T04:45:25.097Z,20.54
2018-10-06T04:46:25.049Z,20.58
2018-10-06T04:47:25.004Z,20.58
2018-10-06T04:48:24.960Z,20.55
2018-10-06T04:49:24.912Z,20.54
2018-10-06T04:50:24.864Z,20.52
2018-10-06T04:51:24.818Z,20.58
2018-10-06T04:52:24.772Z,20.54
2018-10-06T04:53:24.726Z,20.58
2018-10-06T04:54:24.681Z,20.54
2018-10-06T04:55:24.632Z,20.57
2018-10-06T04:56:24.589Z,20.55
2018-10-06T04:57:24.541Z,20.54
2018-10-06T04:58:24.493Z,20.55
2018-10-06T04:59:24.448Z,20.51
2018-10-06T05:00:24.402Z,20.58
2018-10-06T05:01:24.360Z,20.54
2018-10-06T05:02:24.310Z,20.54
2018-10-06T05:03:24.331Z,20.54
2018-10-06T05:04:24.220Z,20.59
2018-10-06T05:05:24.172Z,20.55
2018-10-06T05:06:24.123Z,20.59
2018-10-06T05:07:24.076Z,20.54
2018-10-06T05:08:24.031Z,20.57
2018-10-06T05:09:23.984Z,20.52
2018-10-06T05:10:23.938Z,20.55
2018-10-06T05:11:23.891Z,20.51
2018-10-06T05:12:23.845Z,20.54
2018-10-06T05:13:23.799Z,20.52
2018-10-06T05:14:23.752Z,20.57
2018-10-06T05:15:23.706Z,20.55
2018-10-06T05:16:23.660Z,20.54
2018-10-06T05:17:23.617Z,20.57
2018-10-06T05:18:23.566Z,20.57
2018-10-06T05:19:23.521Z,20.57
2018-10-06T05:20:23.474Z,20.61
2018-10-06T05:21:23.431Z,20.51
2018-10-06T05:22:23.382Z,20.57
2018-10-06T05:23:23.358Z,20.61
2018-10-06T05:24:23.290Z,20.59
2018-10-06T05:25:23.247Z,20.54
2018-10-06T05:26:23.196Z,20.54
2018-10-06T05:27:23.151Z,20.57
2018-10-06T05:28:23.106Z,20.61
2018-10-06T05:29:23.058Z,20.54
2018-10-06T05:30:23.011Z,20.57
2018-10-06T05:31:22.964Z,20.54
2018-10-06T05:32:22.933Z,20.54
2018-10-06T05:33:22.873Z,20.62
2018-10-06T05:34:22.826Z,20.51
2018-10-06T05:35:22.779Z,20.54
2018-10-06T05:36:22.734Z,20.62
2018-10-06T05:37:22.687Z,20.57
2018-10-06T05:38:22.640Z,20.54
2018-10-06T05:39:22.594Z,20.57
2018-10-06T05:40:22.548Z,20.52
2018-10-06T05:41:22.502Z,20.59
2018-10-06T05:42:22.455Z,20.55
2018-10-06T05:43:22.409Z,20.51
2018-10-06T05:44:22.362Z,20.59
2018-10-06T05:45:22.316Z,20.58
2018-10-06T05:46:22.300Z,20.51
2018-10-06T05:47:22.223Z,20.61
2018-10-06T05:48:22.181Z,20.51
2018-10-06T05:49:22.131Z,20.52
2018-10-06T05:50:22.084Z,20.58
2018-10-06T05:51:22.041Z,20.58
2018-10-06T05:52:21.991Z,20.55
2018-10-06T05:53:21.945Z,20.50
2018-10-06T05:54:21.899Z,20.58
2018-10-06T05:55:21.902Z,20.54
2018-10-06T05:56:21.806Z,20.61
2018-10-06T05:57:21.760Z,20.55
2018-10-06T05:58:21.713Z,20.55
2018-10-06T05:59:21.667Z,20.55
2018-10-06T06:00:21.624Z,20.54
2018-10-06T06:01:21.891Z,20.59
2018-10-06T06:02:21.528Z,20.54
2018-10-06T06:03:21.485Z,20.54
2018-10-06T06:04:21.438Z,20.57
2018-10-06T06:05:21.390Z,20.54
2018-10-06T06:06:21.342Z,20.61
2018-10-06T06:07:21.297Z,20.52
2018-10-06T06:08:21.250Z,20.57
2018-10-06T06:09:21.244Z,20.57
2018-10-06T06:10:21.207Z,20.57
2018-10-06T06:11:21.111Z,20.55
2018-10-06T06:12:21.064Z,20.55
2018-10-06T06:13:21.019Z,20.59
2018-10-06T06:14:20.971Z,20.57
2018-10-06T06:15:20.926Z,20.54
2018-10-06T06:16:20.879Z,20.54
2018-10-06T06:17:20.833Z,20.52
2018-10-06T06:18:20.786Z,20.54
2018-10-06T06:19:20.740Z,20.58
2018-10-06T06:20:20.694Z,20.62
2018-10-06T06:21:20.648Z,20.52
2018-10-06T06:22:20.601Z,20.54
2018-10-06T06:23:20.554Z,20.66
2018-10-06T06:24:20.516Z,20.64
2018-10-06T06:25:20.462Z,20.58
2018-10-06T06:26:20.415Z,20.61
2018-10-06T06:27:20.369Z,20.66
2018-10-06T06:28:20.323Z,20.72
2018-10-06T06:29:20.277Z,20.61
2018-10-06T06:30:20.230Z,20.72
2018-10-06T06:31:20.327Z,20.79
2018-10-06T06:32:20.216Z,20.80
2018-10-06T06:33:20.092Z,20.82
2018-10-06T06:34:20.045Z,21.04
2018-10-06T06:35:19.999Z,21.10
2018-10-06T06:36:19.952Z,21.24
2018-10-06T06:37:19.907Z,21.16
2018-10-06T06:38:19.900Z,21.22
2018-10-06T06:39:19.813Z,21.31
2018-10-06T06:40:19.767Z,21.37
2018-10-06T06:41:19.771Z,21.38
2018-10-06T06:42:19.678Z,21.42
2018-10-06T06:43:19.630Z,21.43
2018-10-06T06:44:19.695Z,21.44
2018-10-06T06:45:19.587Z,21.54
2018-10-06T06:46:19.489Z,21.65
2018-10-06T06:47:19.445Z,21.68
2018-10-06T06:48:19.399Z,21.74
2018-10-06T06:49:19.351Z,21.80
2018-10-06T06:50:19.305Z,21.72
2018-10-06T06:51:19.263Z,21.79
2018-10-06T06:52:19.213Z,21.77
2018-10-06T06:53:19.167Z,21.83
2018-10-06T06:54:19.123Z,21.88
2018-10-06T06:55:19.075Z,21.88
2018-10-06T06:56:19.030Z,21.91
2018-10-06T06:57:18.983Z,21.91
2018-10-06T06:58:18.936Z,21.90
2018-10-06T06:59:18.890Z,21.92
2018-10-06T07:00:18.846Z,21.99
2018-10-06T07:01:18.799Z,21.96
2018-10-06T07:02:18.752Z,21.96
2018-10-06T07:03:18.707Z,21.99
2018-10-06T07:04:18.661Z,21.94
2018-10-06T07:05:18.616Z,21.99
2018-10-06T07:06:18.572Z,22.06
2018-10-06T07:07:18.522Z,22.06
2018-10-06T07:08:18.477Z,22.09
2018-10-06T07:09:18.431Z,22.12
2018-10-06T07:10:18.389Z,22.14
2018-10-06T07:11:18.339Z,22.18
2018-10-06T07:12:18.297Z,22.21
2018-10-06T07:13:18.251Z,22.22
2018-10-06T07:14:18.202Z,22.25
2018-10-06T07:15:18.158Z,22.21
2018-10-06T07:16:18.111Z,22.25
2018-10-06T07:17:18.067Z,22.24
2018-10-06T07:18:18.064Z,22.25
2018-10-06T07:19:17.977Z,22.24
2018-10-06T07:20:17.928Z,22.30
2018-10-06T07:21:17.883Z,22.36
2018-10-06T07:22:17.837Z,22.33
2018-10-06T07:23:17.792Z,22.28
2018-10-06T07:24:17.748Z,22.36
2018-10-06T07:25:17.766Z,22.25
2018-10-06T07:26:17.655Z,22.21
2018-10-06T07:27:17.609Z,22.37
2018-10-06T07:28:17.564Z,22.39
2018-10-06T07:29:17.519Z,22.36
2018-10-06T07:30:17.475Z,22.37
2018-10-06T07:31:17.427Z,22.40
2018-10-06T07:32:17.382Z,22.42
2018-10-06T07:33:17.336Z,22.43
2018-10-06T07:34:17.291Z,22.45
2018-10-06T07:35:17.249Z,22.43
2018-10-06T07:36:17.203Z,22.46
2018-10-06T07:37:17.156Z,22.43
2018-10-06T07:38:17.110Z,22.45
2018-10-06T07:39:17.068Z,22.45
2018-10-06T07:40:17.021Z,22.51
2018-10-06T07:41:16.976Z,22.46
2018-10-06T07:42:16.930Z,22.45
2018-10-06T07:43:16.885Z,22.52
2018-10-06T07:44:16.840Z,22.54
2018-10-06T07:45:16.796Z,22.47
2018-10-06T07:46:16.750Z,22.49
2018-10-06T07:47:16.705Z,22.49
2018-10-06T07:48:16.660Z,22.46
2018-10-06T07:49:16.615Z,22.43
2018-10-06T07:50:16.570Z,22.47
2018-10-06T07:51:16.525Z,22.47
2018-10-06T07:52:16.481Z,22.47
2018-10-06T07:53:16.504Z,22.49
2018-10-06T07:54:16.390Z,22.49
2018-10-06T07:55:16.347Z,22.51
2018-10-06T07:56:16.301Z,22.40
2018-10-06T07:57:16.258Z,22.39
2018-10-06T07:58:16.260Z,22.54
2018-10-06T07:59:16.189Z,22.43
2018-10-06T08:00:16.123Z,22.33
2018-10-06T08:01:16.080Z,22.42
2018-10-06T08:02:16.033Z,22.25
2018-10-06T08:03:15.990Z,22.28
2018-10-06T08:04:15.945Z,22.24
2018-10-06T08:05:15.901Z,22.25
2018-10-06T08:06:15.910Z,22.27
2018-10-06T08:07:15.811Z,22.33
2018-10-06T08:08:15.769Z,22.35
2018-10-06T08:09:15.722Z,22.24
2018-10-06T08:10:15.677Z,22.35
2018-10-06T08:11:15.632Z,22.33
2018-10-06T08:12:15.588Z,22.30
2018-10-06T08:13:15.545Z,22.27
2018-10-06T08:14:15.500Z,22.28
2018-10-06T08:15:15.458Z,22.18
2018-10-06T08:16:15.410Z,22.33
2018-10-06T08:17:15.366Z,22.12
2018-10-06T08:18:15.321Z,22.18
2018-10-06T08:19:15.276Z,22.15
2018-10-06T08:20:15.233Z,22.20
2018-10-06T08:21:15.188Z,22.15
2018-10-06T08:22:15.143Z,22.14
2018-10-06T08:23:15.099Z,22.18
2018-10-06T08:24:15.055Z,22.15
2018-10-06T08:25:15.011Z,22.17
2018-10-06T08:26:14.966Z,22.15
2018-10-06T08:27:14.922Z,22.12
2018-10-06T08:28:14.880Z,22.12
2018-10-06T08:29:14.837Z,22.12
2018-10-06T08:30:14.792Z,22.06
2018-10-06T08:31:14.749Z,22.06
2018-10-06T08:32:14.700Z,22.05
2018-10-06T08:33:14.656Z,21.99
2018-10-06T08:34:14.611Z,22.06
2018-10-06T08:35:14.567Z,22.07
2018-10-06T08:36:14.523Z,22.06
2018-10-06T08:37:14.480Z,22.05
2018-10-06T08:38:14.432Z,21.92
2018-10-06T08:39:14.388Z,21.98
2018-10-06T08:40:14.344Z,21.99
2018-10-06T08:41:14.299Z,21.98
2018-10-06T08:42:14.255Z,21.96
2018-10-06T08:43:14.210Z,22.00
2018-10-06T08:44:14.165Z,21.96
2018-10-06T08:45:14.123Z,22.06
2018-10-06T08:46:14.074Z,22.09
2018-10-06T08:47:14.029Z,21.94
2018-10-06T08:48:13.985Z,22.02
2018-10-06T08:49:13.940Z,22.02
2018-10-06T08:50:13.895Z,21.92
2018-10-06T08:51:13.849Z,21.91
2018-10-06T08:52:13.804Z,21.92
2018-10-06T08:53:13.764Z,21.98
2018-10-06T08:54:13.718Z,21.99
2018-10-06T08:55:13.670Z,21.86
2018-10-06T08:56:13.775Z,22.00
2018-10-06T08:57:13.579Z,22.03
2018-10-06T08:58:13.532Z,21.98
2018-10-06T08:59:13.487Z,21.99
2018-10-06T09:00:13.443Z,21.99
2018-10-06T09:01:13.401Z,21.91
2018-10-06T09:02:13.351Z,21.96
2018-10-06T09:03:13.306Z,21.90
2018-10-06T09:04:13.289Z,21.98
2018-10-06T09:05:13.216Z,21.91
2018-10-06T09:06:13.172Z,21.92
2018-10-06T09:07:13.125Z,21.92
2018-10-06T09:08:13.079Z,21.92
2018-10-06T09:09:13.033Z,21.88
2018-10-06T09:10:13.039Z,21.91
2018-10-06T09:11:12.943Z,21.92
2018-10-06T09:12:12.897Z,21.84
2018-10-06T09:13:12.852Z,21.83
2018-10-06T09:14:12.806Z,21.86
2018-10-06T09:15:12.760Z,21.91
2018-10-06T09:16:12.715Z,21.80
2018-10-06T09:17:12.670Z,21.88
2018-10-06T09:18:12.623Z,21.96
2018-10-06T09:19:12.581Z,21.86
2018-10-06T09:20:12.532Z,21.90
2018-10-06T09:21:12.491Z,21.91
2018-10-06T09:22:12.441Z,21.99
2018-10-06T09:23:12.399Z,21.91
2018-10-06T09:24:12.352Z,21.91
2018-10-06T09:25:12.308Z,21.92
2018-10-06T09:26:12.258Z,21.86
2018-10-06T09:27:12.213Z,21.91
2018-10-06T09:28:12.184Z,21.92
2018-10-06T09:29:12.122Z,21.94
2018-10-06T09:30:12.078Z,21.84
2018-10-06T09:31:12.031Z,21.91
2018-10-06T09:32:11.993Z,21.96
2018-10-06T09:33:11.940Z,21.90
2018-10-06T09:34:11.894Z,21.91
2018-10-06T09:35:11.848Z,21.90
2018-10-06T09:36:11.803Z,21.91
2018-10-06T09:37:11.768Z,21.90
2018-10-06T09:38:11.711Z,21.91
2018-10-06T09:39:11.665Z,21.88
2018-10-06T09:40:11.620Z,21.88
2018-10-06T09:41:11.574Z,21.90
2018-10-06T09:42:11.676Z,21.84
2018-10-06T09:43:11.482Z,21.84
2018-10-06T09:44:11.438Z,21.84
2018-10-06T09:45:11.391Z,21.88
2018-10-06T09:46:11.346Z,21.88
2018-10-06T09:47:11.301Z,21.82
2018-10-06T09:48:11.273Z,21.82
2018-10-06T09:49:11.209Z,21.83
2018-10-06T09:50:11.165Z,21.83
2018-10-06T09:51:11.117Z,21.77
2018-10-06T09:52:11.071Z,21.83
2018-10-06T09:53:11.029Z,21.72
2018-10-06T09:54:10.980Z,21.86
2018-10-06T09:55:10.937Z,21.83
2018-10-06T09:56:10.888Z,21.83
2018-10-06T09:57:10.843Z,21.80
2018-10-06T09:58:10.797Z,21.82
2018-10-06T09:59:10.751Z,21.79
2018-10-06T10:00:10.706Z,21.82
2018-10-06T10:01:10.662Z,21.74
2018-10-06T10:02:10.614Z,21.86
2018-10-06T10:03:10.568Z,21.80
2018-10-06T10:04:10.523Z,21.77
2018-10-06T10:05:10.493Z,21.84
2018-10-06T10:06:10.431Z,21.80
2018-10-06T10:07:10.448Z,21.77
2018-10-06T10:08:10.353Z,21.71
2018-10-06T10:09:10.294Z,21.79
2018-10-06T10:10:10.251Z,21.75
2018-10-06T10:11:10.202Z,21.75
2018-10-06T10:12:10.157Z,21.77
2018-10-06T10:13:10.111Z,21.75
2018-10-06T10:14:10.066Z,21.72
2018-10-06T10:15:10.020Z,21.77
2018-10-06T10:16:09.976Z,21.77
2018-10-06T10:17:10.102Z,21.69
2018-10-06T10:18:10.038Z,21.77
2018-10-06T10:19:09.836Z,21.77
2018-10-06T10:20:09.790Z,21.69
2018-10-06T10:21:09.846Z,21.74
2018-10-06T10:22:09.760Z,21.67
2018-10-06T10:23:09.737Z,21.64
2018-10-06T10:24:09.608Z,21.74
2018-10-06T10:25:09.561Z,21.69
2018-10-06T10:26:09.515Z,21.69
2018-10-06T10:27:09.472Z,21.64
2018-10-06T10:28:09.450Z,21.71
2018-10-06T10:29:09.379Z,21.68
2018-10-06T10:30:09.332Z,21.64
2018-10-06T10:31:09.287Z,21.72
2018-10-06T10:32:09.241Z,21.69
2018-10-06T10:33:09.195Z,21.69
2018-10-06T10:34:09.149Z,21.65
2018-10-06T10:35:09.103Z,21.72
2018-10-06T10:36:09.058Z,21.68
2018-10-06T10:37:09.017Z,21.71
2018-10-06T10:38:08.968Z,21.67
2018-10-06T10:39:08.929Z,21.65
2018-10-06T10:40:08.875Z,21.67
2018-10-06T10:41:08.829Z,21.67
2018-10-06T10:42:08.782Z,21.72
2018-10-06T10:43:08.740Z,21.67
2018-10-06T10:44:08.824Z,21.64
2018-10-06T10:45:08.649Z,21.61
2018-10-06T10:46:08.599Z,21.69
2018-10-06T10:47:08.554Z,21.62
2018-10-06T10:48:08.530Z,21.61
2018-10-06T10:49:08.462Z,21.61
2018-10-06T10:50:08.417Z,21.56
2018-10-06T10:51:08.374Z,21.59
2018-10-06T10:52:08.325Z,21.61
2018-10-06T10:53:08.279Z,21.65
2018-10-06T10:54:08.233Z,21.64
2018-10-06T10:55:08.187Z,21.59
2018-10-06T10:56:08.195Z,21.58
2018-10-06T10:57:08.096Z,21.61
2018-10-06T10:58:08.050Z,21.59
2018-10-06T10:59:08.004Z,21.53
2018-10-06T11:00:08.170Z,21.62
2018-10-06T11:01:07.997Z,21.62
2018-10-06T11:02:07.866Z,21.61
2018-10-06T11:03:07.820Z,21.56
2018-10-06T11:04:07.775Z,21.61
2018-10-06T11:05:07.731Z,21.62
2018-10-06T11:06:07.686Z,21.52
2018-10-06T11:07:07.637Z,21.52
2018-10-06T11:08:07.591Z,21.61
2018-10-06T11:09:07.546Z,21.59
2018-10-06T11:10:07.499Z,21.53
2018-10-06T11:11:07.456Z,21.52
2018-10-06T11:12:07.408Z,21.52
2018-10-06T11:13:07.362Z,21.52
2018-10-06T11:14:07.316Z,21.56
2018-10-06T11:15:07.273Z,21.64
2018-10-06T11:16:07.225Z,21.59
2018-10-06T11:17:07.191Z,21.56
2018-10-06T11:18:07.143Z,21.61
2018-10-06T11:19:07.088Z,21.54
2018-10-06T11:20:07.042Z,21.58
2018-10-06T11:21:06.995Z,21.52
2018-10-06T11:22:06.949Z,21.58
2018-10-06T11:23:06.903Z,21.53
2018-10-06T11:24:06.858Z,21.53
2018-10-06T11:25:06.813Z,21.46
2018-10-06T11:26:06.765Z,21.58
2018-10-06T11:27:06.729Z,21.54
2018-10-06T11:28:06.676Z,21.53
2018-10-06T11:29:06.629Z,21.49
2018-10-06T11:30:06.582Z,21.47
2018-10-06T11:31:06.536Z,21.59
2018-10-06T11:32:06.493Z,21.50
2018-10-06T11:33:06.445Z,21.54
2018-10-06T11:34:06.399Z,21.58
2018-10-06T11:35:06.354Z,21.49
2018-10-06T11:36:06.308Z,21.44
2018-10-06T11:37:06.266Z,21.53
2018-10-06T11:38:06.276Z,21.58
2018-10-06T11:39:06.169Z,21.54
2018-10-06T11:40:06.124Z,21.53
2018-10-06T11:41:06.079Z,21.58
2018-10-06T11:42:06.032Z,21.47
2018-10-06T11:43:05.986Z,21.58
2018-10-06T11:44:05.940Z,21.49
2018-10-06T11:45:05.895Z,21.62
2018-10-06T11:46:05.848Z,21.50
2018-10-06T11:47:05.803Z,21.52
2018-10-06T11:48:05.757Z,21.49
2018-10-06T11:49:05.711Z,21.58
2018-10-06T11:50:05.683Z,21.52
2018-10-06T11:51:05.620Z,21.61
2018-10-06T11:52:05.574Z,21.53
2018-10-06T11:53:05.528Z,21.54
2018-10-06T11:54:05.485Z,21.54
2018-10-06T11:55:05.436Z,21.46
2018-10-06T11:56:05.392Z,21.52
2018-10-06T11:57:05.344Z,21.54
2018-10-06T11:58:05.308Z,21.50
2018-10-06T11:59:05.253Z,21.58
2018-10-06T12:00:05.344Z,21.44
2018-10-06T12:01:05.161Z,21.61
2018-10-06T12:02:05.117Z,21.53
2018-10-06T12:03:05.069Z,21.54
2018-10-06T12:04:05.023Z,21.54
2018-10-06T12:05:04.985Z,21.54
2018-10-06T12:06:04.931Z,21.44
2018-10-06T12:07:04.888Z,21.44
2018-10-06T12:08:04.841Z,21.54
2018-10-06T12:09:04.795Z,21.54
2018-10-06T12:10:04.748Z,21.56
2018-10-06T12:11:04.702Z,21.50
2018-10-06T12:12:04.658Z,21.54
2018-10-06T12:13:04.613Z,21.59
2018-10-06T12:14:04.565Z,21.44
2018-10-06T12:15:04.522Z,21.54
2018-10-06T12:16:04.473Z,21.54
2018-10-06T12:17:04.428Z,21.53
2018-10-06T12:18:04.381Z,21.56
2018-10-06T12:19:04.335Z,21.54
2018-10-06T12:20:04.290Z,21.53
2018-10-06T12:21:04.244Z,21.61
2018-10-06T12:22:04.197Z,21.44
2018-10-06T12:23:04.152Z,21.46
2018-10-06T12:24:04.111Z,21.47
2018-10-06T12:25:04.113Z,21.58
2018-10-06T12:26:04.078Z,21.59
2018-10-06T12:27:03.969Z,21.53
2018-10-06T12:28:03.923Z,21.52
2018-10-06T12:29:03.877Z,21.54
2018-10-06T12:30:03.833Z,21.54
2018-10-06T12:31:03.788Z,21.59
2018-10-06T12:32:03.740Z,21.52
2018-10-06T12:33:03.694Z,21.53
2018-10-06T12:34:03.647Z,21.62
2018-10-06T12:35:03.624Z,21.61
2018-10-06T12:36:03.560Z,21.54
2018-10-06T12:37:03.510Z,21.54
2018-10-06T12:38:03.464Z,21.50
2018-10-06T12:39:03.418Z,21.44
2018-10-06T12:40:03.373Z,21.44
2018-10-06T12:41:03.327Z,21.56
2018-10-06T12:42:03.306Z,21.58
2018-10-06T12:43:03.243Z,21.54
2018-10-06T12:44:03.189Z,21.52
2018-10-06T12:45:03.144Z,21.54
2018-10-06T12:46:03.099Z,21.54
2018-10-06T12:47:03.052Z,21.52
2018-10-06T12:48:03.006Z,21.54
2018-10-06T12:49:02.962Z,21.53
2018-10-06T12:50:02.914Z,21.49
2018-10-06T12:51:02.869Z,21.54
2018-10-06T12:52:02.826Z,21.58